createdAt,value
2018-03-08T00:00:30.605Z,99.99
2018-03-08T00:01:30.598Z,99.99
2018-03-08T00:02:30.589Z,99.99
2018-03-08T00:03:30.582Z,99.99
2018-03-08T00:04:30.578Z,99.99
2018-03-08T00:05:30.569Z,99.99
2018-03-08T00:06:30.561Z,99.99
2018-03-08T00:07:30.553Z,99.99
2018-03-08T00:08:30.547Z,99.99
2018-03-08T00:09:30.537Z,99.99
2018-03-08T00:10:30.529Z,99.99
2018-03-08T00:11:30.523Z,99.99
2018-03-08T00:12:30.511Z,99.99
2018-03-08T00:13:30.503Z,99.99
2018-03-08T00:14:30.495Z,99.99
2018-03-08T00:15:30.489Z,99.99
2018-03-08T00:16:30.484Z,99.99
2018-03-08T00:17:30.476Z,99.99
2018-03-08T00:18:30.467Z,99.99
2018-03-08T00:19:30.460Z,99.99
2018-03-08T00:20:30.453Z,99.99
2018-03-08T00:21:30.444Z,99.99
2018-03-08T00:22:30.437Z,99.99
2018-03-08T00:23:30.428Z,99.99
2018-03-08T00:24:30.421Z,99.99
2018-03-08T00:25:30.412Z,99.99
2018-03-08T00:26:30.404Z,99.99
2018-03-08T00:27:30.396Z,99.99
2018-03-08T00:28:30.392Z,99.99
2018-03-08T00:29:30.382Z,99.99
2018-03-08T00:30:30.373Z,99.99
2018-03-08T00:31:30.366Z,99.99
2018-03-08T00:32:30.359Z,99.99
2018-03-08T00:33:30.351Z,99.99
2018-03-08T00:34:30.343Z,99.99
2018-03-08T00:35:30.377Z,99.99
2018-03-08T00:36:30.326Z,99.99
2018-03-08T00:37:30.319Z,99.99
2018-03-08T00:38:30.309Z,99.99
2018-03-08T00:39:30.302Z,99.99
2018-03-08T00:40:30.296Z,99.99
2018-03-08T00:41:30.286Z,99.99
2018-03-08T00:42:30.278Z,99.99
2018-03-08T00:43:30.271Z,99.99
2018-03-08T00:44:30.264Z,99.99
2018-03-08T00:45:30.256Z,99.99
2018-03-08T00:46:30.248Z,99.99
2018-03-08T00:47:30.242Z,99.99
2018-03-08T00:48:30.232Z,99.99
2018-03-08T00:49:30.222Z,99.99
2018-03-08T00:50:30.217Z,99.99
2018-03-08T00:51:30.207Z,99.99
2018-03-08T00:52:30.201Z,99.99
2018-03-08T00:53:30.193Z,99.99
2018-03-08T00:54:30.185Z,99.99
2018-03-08T00:55:30.176Z,99.99
2018-03-08T00:56:30.170Z,99.99
2018-03-08T00:57:30.160Z,99.99
2018-03-08T00:58:30.152Z,99.99
2018-03-08T00:59:30.144Z,99.99
2018-03-08T01:00:30.182Z,99.99
2018-03-08T01:01:30.127Z,99.99
2018-03-08T01:02:30.119Z,99.99
2018-03-08T01:03:30.112Z,99.99
2018-03-08T01:04:30.103Z,99.99
2018-03-08T01:05:30.097Z,99.99
2018-03-08T01:06:30.088Z,99.99
2018-03-08T01:07:30.082Z,99.99
2018-03-08T01:08:30.073Z,99.99
2018-03-08T01:09:30.064Z,99.99
2018-03-08T01:10:30.057Z,99.99
2018-03-08T01:11:30.049Z,99.99
2018-03-08T01:12:30.041Z,99.99
2018-03-08T01:13:30.032Z,99.99
2018-03-08T01:14:30.026Z,99.99
2018-03-08T01:15:30.016Z,99.99
2018-03-08T01:16:30.007Z,99.99
2018-03-08T01:17:29.998Z,99.99
2018-03-08T01:18:29.990Z,99.99
2018-03-08T01:19:29.982Z,99.99
2018-03-08T01:20:29.975Z,99.99
2018-03-08T01:21:29.972Z,99.99
2018-03-08T01:22:29.958Z,99.99
2018-03-08T01:23:29.954Z,99.99
2018-03-08T01:24:29.943Z,99.99
2018-03-08T01:25:29.934Z,99.99
2018-03-08T01:26:29.927Z,99.99
2018-03-08T01:27:29.919Z,99.99
2018-03-08T01:28:29.910Z,99.99
2018-03-08T01:29:29.901Z,99.99
2018-03-08T01:30:29.893Z,99.99
2018-03-08T01:31:29.885Z,99.99
2018-03-08T01:32:29.876Z,99.99
2018-03-08T01:33:29.868Z,99.99
2018-03-08T01:34:29.860Z,99.99
2018-03-08T01:35:29.852Z,99.99
2018-03-08T01:36:29.844Z,99.99
2018-03-08T01:37:29.840Z,99.99
2018-03-08T01:38:29.827Z,99.99
2018-03-08T01:39:29.820Z,99.99
2018-03-08T01:40:29.813Z,99.99
2018-03-08T01:41:29.803Z,99.99
2018-03-08T01:42:29.800Z,99.99
2018-03-08T01:43:29.789Z,99.99
2018-03-08T01:44:29.780Z,99.99
2018-03-08T01:45:29.772Z,99.99
2018-03-08T01:46:29.764Z,99.99
2018-03-08T01:47:29.756Z,99.99
2018-03-08T01:48:29.746Z,99.99
2018-03-08T01:49:29.740Z,99.99
2018-03-08T01:50:29.731Z,99.99
2018-03-08T01:51:29.721Z,99.99
2018-03-08T01:52:29.716Z,99.99
2018-03-08T01:53:29.708Z,99.99
2018-03-08T01:54:29.698Z,99.99
2018-03-08T01:55:29.690Z,99.99
2018-03-08T01:56:29.682Z,99.99
2018-03-08T01:57:29.673Z,99.99
2018-03-08T01:58:29.664Z,99.99
2018-03-08T01:59:29.657Z,99.99
2018-03-08T02:00:29.649Z,99.99
2018-03-08T02:01:29.640Z,99.99
2018-03-08T02:02:29.632Z,99.99
2018-03-08T02:03:29.625Z,99.99
2018-03-08T02:04:29.617Z,99.99
2018-03-08T02:05:29.609Z,99.99
2018-03-08T02:06:29.602Z,99.99
2018-03-08T02:07:29.593Z,99.99
2018-03-08T02:08:29.585Z,99.99
2018-03-08T02:09:29.577Z,99.99
2018-03-08T02:10:29.570Z,99.99
2018-03-08T02:11:29.559Z,99.99
2018-03-08T02:12:29.551Z,99.99
2018-03-08T02:13:29.541Z,99.99
2018-03-08T02:14:29.534Z,99.99
2018-03-08T02:15:29.526Z,99.99
2018-03-08T02:16:29.518Z,99.99
2018-03-08T02:17:29.509Z,99.99
2018-03-08T02:18:29.502Z,99.99
2018-03-08T02:19:29.495Z,99.99
2018-03-08T02:20:29.487Z,99.99
2018-03-08T02:21:29.480Z,99.99
2018-03-08T02:22:29.471Z,99.99
2018-03-08T02:23:29.463Z,99.99
2018-03-08T02:24:29.455Z,99.99
2018-03-08T02:25:29.447Z,99.99
2018-03-08T02:26:29.437Z,99.99
2018-03-08T02:27:29.430Z,99.99
2018-03-08T02:28:29.424Z,99.99
2018-03-08T02:29:29.413Z,99.99
2018-03-08T02:30:29.406Z,99.99
2018-03-08T02:31:29.399Z,99.99
2018-03-08T02:32:29.388Z,99.99
2018-03-08T02:33:29.380Z,99.99
2018-03-08T02:34:29.373Z,99.99
2018-03-08T02:35:29.364Z,99.99
2018-03-08T02:36:29.359Z,99.99
2018-03-08T02:37:29.347Z,99.99
2018-03-08T02:38:29.340Z,99.99
2018-03-08T02:39:29.332Z,99.99
2018-03-08T02:40:29.325Z,99.99
2018-03-08T02:41:29.315Z,99.99
2018-03-08T02:42:29.308Z,99.99
2018-03-08T02:43:29.299Z,99.99
2018-03-08T02:44:29.288Z,99.99
2018-03-08T02:45:29.280Z,99.99
2018-03-08T02:46:29.274Z,99.99
2018-03-08T02:47:29.266Z,99.99
2018-03-08T02:48:29.255Z,99.99
2018-03-08T02:49:29.247Z,99.99
2018-03-08T02:50:29.239Z,99.99
2018-03-08T02:51:29.232Z,99.99
2018-03-08T02:52:29.224Z,99.99
2018-03-08T02:53:29.214Z,99.99
2018-03-08T02:54:29.204Z,99.99
2018-03-08T02:55:29.204Z,99.99
2018-03-08T02:56:29.189Z,99.99
2018-03-08T02:57:29.179Z,99.99
2018-03-08T02:58:29.171Z,99.99
2018-03-08T02:59:29.161Z,99.99
2018-03-08T03:00:29.156Z,99.99
2018-03-08T03:01:29.147Z,99.99
2018-03-08T03:02:29.141Z,99.99
2018-03-08T03:03:29.130Z,99.99
2018-03-08T03:04:29.122Z,99.99
2018-03-08T03:05:29.112Z,99.99
2018-03-08T03:06:29.104Z,99.99
2018-03-08T03:07:29.096Z,99.99
2018-03-08T03:08:29.086Z,99.99
2018-03-08T03:09:29.076Z,99.99
2018-03-08T03:10:29.069Z,99.99
2018-03-08T03:11:29.059Z,99.99
2018-03-08T03:12:29.051Z,99.99
2018-03-08T03:13:29.043Z,99.99
2018-03-08T03:14:29.039Z,99.99
2018-03-08T03:15:29.026Z,99.99
2018-03-08T03:16:29.017Z,99.99
2018-03-08T03:17:29.008Z,99.99
2018-03-08T03:18:28.999Z,99.99
2018-03-08T03:19:28.990Z,99.99
2018-03-08T03:20:28.982Z,99.99
2018-03-08T03:21:28.972Z,99.99
2018-03-08T03:22:28.963Z,99.99
2018-03-08T03:23:28.955Z,99.99
2018-03-08T03:24:28.944Z,99.99
2018-03-08T03:25:28.935Z,99.99
2018-03-08T03:26:28.926Z,99.99
2018-03-08T03:27:28.918Z,99.99
2018-03-08T03:28:28.909Z,99.99
2018-03-08T03:29:28.900Z,99.99
2018-03-08T03:30:28.891Z,99.99
2018-03-08T03:31:28.884Z,99.99
2018-03-08T03:32:28.876Z,99.99
2018-03-08T03:33:28.865Z,99.99
2018-03-08T03:34:28.858Z,99.99
2018-03-08T03:35:28.847Z,99.99
2018-03-08T03:36:28.839Z,99.99
2018-03-08T03:37:28.828Z,99.99
2018-03-08T03:38:28.819Z,99.99
2018-03-08T03:39:28.810Z,99.99
2018-03-08T03:40:28.800Z,99.99
2018-03-08T03:41:28.792Z,99.99
2018-03-08T03:42:28.784Z,99.99
2018-03-08T03:43:28.772Z,99.99
2018-03-08T03:44:28.765Z,99.99
2018-03-08T03:45:28.753Z,99.99
2018-03-08T03:46:28.749Z,99.99
2018-03-08T03:47:28.737Z,99.99
2018-03-08T03:48:28.727Z,99.99
2018-03-08T03:49:28.714Z,99.99
2018-03-08T03:50:28.706Z,99.99
2018-03-08T03:51:28.697Z,99.99
2018-03-08T03:52:28.686Z,99.99
2018-03-08T03:53:28.680Z,99.99
2018-03-08T03:54:28.668Z,99.99
2018-03-08T03:55:28.658Z,99.99
2018-03-08T03:56:28.653Z,99.99
2018-03-08T03:57:28.643Z,99.99
2018-03-08T03:58:28.632Z,99.99
2018-03-08T03:59:28.624Z,99.99
2018-03-08T04:00:28.611Z,99.99
2018-03-08T04:01:28.601Z,99.99
2018-03-08T04:02:28.593Z,99.99
2018-03-08T04:03:28.583Z,99.99
2018-03-08T04:04:28.606Z,99.99
2018-03-08T04:05:28.569Z,99.99
2018-03-08T04:06:28.559Z,99.99
2018-03-08T04:07:28.547Z,99.99
2018-03-08T04:08:28.538Z,99.99
2018-03-08T04:09:28.527Z,99.99
2018-03-08T04:10:28.519Z,99.99
2018-03-08T04:11:28.508Z,99.99
2018-03-08T04:12:28.497Z,99.99
2018-03-08T04:13:28.485Z,99.99
2018-03-08T04:14:28.478Z,99.99
2018-03-08T04:15:28.468Z,99.99
2018-03-08T04:16:28.459Z,99.99
2018-03-08T04:17:28.448Z,99.99
2018-03-08T04:18:28.439Z,99.99
2018-03-08T04:19:28.430Z,99.99
2018-03-08T04:20:28.423Z,99.99
2018-03-08T04:21:28.413Z,99.99
2018-03-08T04:22:28.403Z,99.99
2018-03-08T04:23:28.393Z,99.99
2018-03-08T04:24:28.385Z,99.99
2018-03-08T04:25:28.373Z,99.99
2018-03-08T04:26:28.365Z,99.99
2018-03-08T04:27:28.354Z,99.99
2018-03-08T04:28:28.342Z,99.99
2018-03-08T04:29:28.332Z,99.99
2018-03-08T04:30:28.322Z,99.99
2018-03-08T04:31:28.317Z,99.99
2018-03-08T04:32:28.304Z,99.99
2018-03-08T04:33:28.292Z,99.99
2018-03-08T04:34:28.285Z,99.99
2018-03-08T04:35:28.274Z,99.99
2018-03-08T04:36:28.267Z,99.99
2018-03-08T04:37:28.256Z,99.99
2018-03-08T04:38:28.247Z,99.99
2018-03-08T04:39:28.238Z,99.99
2018-03-08T04:40:28.229Z,99.99
2018-03-08T04:41:28.219Z,99.99
2018-03-08T04:42:28.208Z,99.99
2018-03-08T04:43:28.200Z,99.99
2018-03-08T04:44:28.186Z,99.99
2018-03-08T04:45:28.176Z,99.99
2018-03-08T04:46:28.166Z,99.99
2018-03-08T04:47:28.156Z,99.99
2018-03-08T04:48:28.147Z,99.99
2018-03-08T04:49:28.139Z,99.99
2018-03-08T04:50:28.127Z,99.99
2018-03-08T04:51:28.117Z,99.99
2018-03-08T04:52:28.110Z,99.99
2018-03-08T04:53:28.100Z,99.99
2018-03-08T04:54:28.090Z,99.99
2018-03-08T04:55:28.081Z,99.99
2018-03-08T04:56:28.072Z,99.99
2018-03-08T04:57:28.060Z,99.99
2018-03-08T04:58:28.056Z,99.99
2018-03-08T04:59:28.042Z,99.99
2018-03-08T05:00:28.029Z,99.99
2018-03-08T05:01:28.019Z,99.99
2018-03-08T05:02:28.009Z,99.99
2018-03-08T05:03:27.999Z,99.99
2018-03-08T05:04:27.992Z,99.99
2018-03-08T05:05:27.981Z,99.99
2018-03-08T05:06:27.973Z,99.99
2018-03-08T05:07:27.962Z,99.99
2018-03-08T05:08:27.949Z,99.99
2018-03-08T05:09:27.941Z,99.99
2018-03-08T05:10:27.929Z,99.99
2018-03-08T05:11:27.920Z,99.99
2018-03-08T05:12:27.911Z,99.99
2018-03-08T05:13:27.898Z,99.99
2018-03-08T05:14:27.889Z,99.99
2018-03-08T05:15:27.879Z,99.99
2018-03-08T05:16:27.872Z,99.99
2018-03-08T05:17:27.861Z,99.99
2018-03-08T05:18:27.852Z,99.99
2018-03-08T05:19:27.842Z,99.99
2018-03-08T05:20:27.833Z,99.99
2018-03-08T05:21:27.823Z,99.99
2018-03-08T05:22:27.812Z,99.99
2018-03-08T05:23:27.804Z,99.99
2018-03-08T05:24:27.793Z,99.99
2018-03-08T05:25:27.777Z,99.99
2018-03-08T05:26:27.768Z,99.99
2018-03-08T05:27:27.759Z,99.99
2018-03-08T05:28:27.749Z,99.99
2018-03-08T05:29:27.742Z,99.99
2018-03-08T05:30:27.729Z,99.99
2018-03-08T05:31:27.719Z,99.99
2018-03-08T05:32:27.712Z,99.99
2018-03-08T05:33:27.700Z,99.99
2018-03-08T05:34:27.692Z,99.99
2018-03-08T05:35:27.681Z,99.99
2018-03-08T05:36:27.670Z,99.99
2018-03-08T05:37:27.659Z,99.99
2018-03-08T05:38:27.650Z,99.99
2018-03-08T05:39:27.639Z,99.99
2018-03-08T05:40:27.628Z,99.99
2018-03-08T05:41:27.617Z,99.99
2018-03-08T05:42:27.607Z,99.99
2018-03-08T05:43:27.599Z,99.99
2018-03-08T05:44:27.592Z,99.99
2018-03-08T05:45:27.575Z,99.99
2018-03-08T05:46:27.568Z,99.99
2018-03-08T05:47:27.555Z,99.99
2018-03-08T05:48:27.548Z,99.99
2018-03-08T05:49:27.538Z,99.99
2018-03-08T05:50:27.528Z,99.99
2018-03-08T05:51:27.516Z,99.99
2018-03-08T05:52:27.507Z,99.99
2018-03-08T05:53:27.496Z,99.99
2018-03-08T05:54:27.511Z,99.99
2018-03-08T05:55:27.475Z,99.99
2018-03-08T05:56:27.463Z,99.99
2018-03-08T05:57:27.453Z,99.99
2018-03-08T05:58:27.441Z,99.99
2018-03-08T05:59:27.432Z,99.99
2018-03-08T06:00:27.421Z,99.99
2018-03-08T06:01:27.413Z,99.99
2018-03-08T06:02:27.401Z,99.99
2018-03-08T06:03:27.390Z,99.99
2018-03-08T06:04:27.382Z,99.99
2018-03-08T06:05:27.372Z,99.99
2018-03-08T06:06:27.362Z,99.99
2018-03-08T06:07:27.353Z,99.99
2018-03-08T06:08:27.339Z,99.99
2018-03-08T06:09:27.328Z,99.99
2018-03-08T06:10:27.319Z,99.99
2018-03-08T06:11:27.310Z,99.99
2018-03-08T06:12:27.302Z,99.99
2018-03-08T06:13:27.290Z,99.99
2018-03-08T06:14:27.280Z,99.99
2018-03-08T06:15:27.272Z,99.99
2018-03-08T06:16:27.261Z,99.99
2018-03-08T06:17:27.252Z,99.99
2018-03-08T06:18:27.240Z,99.99
2018-03-08T06:19:27.230Z,99.99
2018-03-08T06:20:27.219Z,99.99
2018-03-08T06:21:27.211Z,99.99
2018-03-08T06:22:27.203Z,99.99
2018-03-08T06:23:27.188Z,99.99
2018-03-08T06:24:27.178Z,99.99
2018-03-08T06:25:27.167Z,99.99
2018-03-08T06:26:27.157Z,99.99
2018-03-08T06:27:27.148Z,99.99
2018-03-08T06:28:27.141Z,99.99
2018-03-08T06:29:27.131Z,99.99
2018-03-08T06:30:27.121Z,99.99
2018-03-08T06:31:27.110Z,99.99
2018-03-08T06:32:27.102Z,99.99
2018-03-08T06:33:27.110Z,99.99
2018-03-08T06:34:27.080Z,99.99
2018-03-08T06:35:27.071Z,99.99
2018-03-08T06:36:27.058Z,99.99
2018-03-08T06:37:27.048Z,99.99
2018-03-08T06:38:27.037Z,99.99
2018-03-08T06:39:27.034Z,99.99
2018-03-08T06:40:27.018Z,99.99
2018-03-08T06:41:27.009Z,99.99
2018-03-08T06:42:26.997Z,99.99
2018-03-08T06:43:26.988Z,98.88
2018-03-08T06:44:26.985Z,97.36
2018-03-08T06:45:26.971Z,96.45
2018-03-08T06:46:26.961Z,95.70
2018-03-08T06:47:26.953Z,94.84
2018-03-08T06:48:26.944Z,93.46
2018-03-08T06:49:26.934Z,92.41
2018-03-08T06:50:26.926Z,91.75
2018-03-08T06:51:26.919Z,91.18
2018-03-08T06:52:26.908Z,90.23
2018-03-08T06:53:26.898Z,90.42
2018-03-08T06:54:26.890Z,89.66
2018-03-08T06:55:26.887Z,89.09
2018-03-08T06:56:26.876Z,89.28
2018-03-08T06:57:26.869Z,88.66
2018-03-08T06:58:26.861Z,88.56
2018-03-08T06:59:26.855Z,87.23
2018-03-08T07:00:26.853Z,86.80
2018-03-08T07:01:26.845Z,85.47
2018-03-08T07:02:26.840Z,85.37
2018-03-08T07:03:26.834Z,85.18
2018-03-08T07:04:26.834Z,84.13
2018-03-08T07:05:26.828Z,84.99
2018-03-08T07:06:26.819Z,83.94
2018-03-08T07:07:26.813Z,83.18
2018-03-08T07:08:26.807Z,83.56
2018-03-08T07:09:26.800Z,83.18
2018-03-08T07:10:26.796Z,82.84
2018-03-08T07:11:26.792Z,82.42
2018-03-08T07:12:26.789Z,82.70
2018-03-08T07:13:26.784Z,82.90
2018-03-08T07:14:26.780Z,83.09
2018-03-08T07:15:26.777Z,82.80
2018-03-08T07:16:26.776Z,82.65
2018-03-08T07:17:26.772Z,82.93
2018-03-08T07:18:26.770Z,82.08
2018-03-08T07:19:26.769Z,82.08
2018-03-08T07:20:26.765Z,81.70
2018-03-08T07:21:26.763Z,80.46
2018-03-08T07:22:26.764Z,80.61
2018-03-08T07:23:26.760Z,81.33
2018-03-08T07:24:26.751Z,82.75
2018-03-08T07:25:26.758Z,82.08
2018-03-08T07:26:26.747Z,81.28
2018-03-08T07:27:26.745Z,81.76
2018-03-08T07:28:26.755Z,81.70
2018-03-08T07:29:26.749Z,81.41
2018-03-08T07:30:26.739Z,81.41
2018-03-08T07:31:26.738Z,81.56
2018-03-08T07:32:26.739Z,81.47
2018-03-08T07:33:26.737Z,81.76
2018-03-08T07:34:26.736Z,82.14
2018-03-08T07:35:26.739Z,81.66
2018-03-08T07:36:26.733Z,82.23
2018-03-08T07:37:26.733Z,82.37
2018-03-08T07:38:26.736Z,82.21
2018-03-08T07:39:26.731Z,81.41
2018-03-08T07:40:26.726Z,81.85
2018-03-08T07:41:26.725Z,82.05
2018-03-08T07:42:26.724Z,82.57
2018-03-08T07:43:26.727Z,83.29
2018-03-08T07:44:26.726Z,83.86
2018-03-08T07:45:26.721Z,84.56
2018-03-08T07:46:26.723Z,84.70
2018-03-08T07:47:26.719Z,84.04
2018-03-08T07:48:26.721Z,82.99
2018-03-08T07:49:26.723Z,83.47
2018-03-08T07:50:26.718Z,82.90
2018-03-08T07:51:26.717Z,82.86
2018-03-08T07:52:26.719Z,84.19
2018-03-08T07:53:26.717Z,83.67
2018-03-08T07:54:26.712Z,84.81
2018-03-08T07:55:26.711Z,85.57
2018-03-08T07:56:26.707Z,86.43
2018-03-08T07:57:26.704Z,87.28
2018-03-08T07:58:26.708Z,87.24
2018-03-08T07:59:26.700Z,87.71
2018-03-08T08:00:26.698Z,88.47
2018-03-08T08:01:26.694Z,88.28
2018-03-08T08:02:26.691Z,87.42
2018-03-08T08:03:26.691Z,86.75
2018-03-08T08:04:26.691Z,85.28
2018-03-08T08:05:26.687Z,84.95
2018-03-08T08:06:26.685Z,84.52
2018-03-08T08:07:26.681Z,85.47
2018-03-08T08:08:26.678Z,86.24
2018-03-08T08:09:26.676Z,86.71
2018-03-08T08:10:26.673Z,86.90
2018-03-08T08:11:26.669Z,85.55
2018-03-08T08:12:26.663Z,83.21
2018-03-08T08:13:26.660Z,82.07
2018-03-08T08:14:26.658Z,80.87
2018-03-08T08:15:26.654Z,79.78
2018-03-08T08:16:26.656Z,78.92
2018-03-08T08:17:26.653Z,79.11
2018-03-08T08:18:26.650Z,78.64
2018-03-08T08:19:26.649Z,79.02
2018-03-08T08:20:26.645Z,78.49
2018-03-08T08:21:26.643Z,77.76
2018-03-08T08:22:26.642Z,76.57
2018-03-08T08:23:26.640Z,76.48
2018-03-08T08:24:26.643Z,76.40
2018-03-08T08:25:26.640Z,77.56
2018-03-08T08:26:26.639Z,79.62
2018-03-08T08:27:26.638Z,80.63
2018-03-08T08:28:26.641Z,82.67
2018-03-08T08:29:26.642Z,83.10
2018-03-08T08:30:26.639Z,83.67
2018-03-08T08:31:26.637Z,85.10
2018-03-08T08:32:26.637Z,85.76
2018-03-08T08:33:26.635Z,86.43
2018-03-08T08:34:26.632Z,86.57
2018-03-08T08:35:26.632Z,87.24
2018-03-08T08:36:26.626Z,87.71
2018-03-08T08:37:26.624Z,88.33
2018-03-08T08:38:26.619Z,88.04
2018-03-08T08:39:26.617Z,88.33
2018-03-08T08:40:26.637Z,88.13
2018-03-08T08:41:26.611Z,88.52
2018-03-08T08:42:26.608Z,87.99
2018-03-08T08:43:26.604Z,87.75
2018-03-08T08:44:26.607Z,86.42
2018-03-08T08:45:26.598Z,85.66
2018-03-08T08:46:26.594Z,85.18
2018-03-08T08:47:26.591Z,85.14
2018-03-08T08:48:26.588Z,85.14
2018-03-08T08:49:26.584Z,85.66
2018-03-08T08:50:26.579Z,86.18
2018-03-08T08:51:26.574Z,86.66
2018-03-08T08:52:26.570Z,86.76
2018-03-08T08:53:26.562Z,86.61
2018-03-08T08:54:26.560Z,85.66
2018-03-08T08:55:26.556Z,84.99
2018-03-08T08:56:26.552Z,84.95
2018-03-08T08:57:26.547Z,85.90
2018-03-08T08:58:26.544Z,86.24
2018-03-08T08:59:26.540Z,86.76
2018-03-08T09:00:26.539Z,87.42
2018-03-08T09:01:26.535Z,87.32
2018-03-08T09:02:26.531Z,87.19
2018-03-08T09:03:26.527Z,87.23
2018-03-08T09:04:26.524Z,87.38
2018-03-08T09:05:26.518Z,88.13
2018-03-08T09:06:26.514Z,87.99
2018-03-08T09:07:26.510Z,88.33
2018-03-08T09:08:26.503Z,88.42
2018-03-08T09:09:26.497Z,88.23
2018-03-08T09:10:26.492Z,88.13
2018-03-08T09:11:26.488Z,88.52
2018-03-08T09:12:26.484Z,88.13
2018-03-08T09:13:26.480Z,88.71
2018-03-08T09:14:26.476Z,89.37
2018-03-08T09:15:26.469Z,89.37
2018-03-08T09:16:26.467Z,89.56
2018-03-08T09:17:26.461Z,90.23
2018-03-08T09:18:26.455Z,90.42
2018-03-08T09:19:26.449Z,90.52
2018-03-08T09:20:26.441Z,90.14
2018-03-08T09:21:26.439Z,89.75
2018-03-08T09:22:26.429Z,89.75
2018-03-08T09:23:26.424Z,89.51
2018-03-08T09:24:26.422Z,89.14
2018-03-08T09:25:26.415Z,88.85
2018-03-08T09:26:26.410Z,87.99
2018-03-08T09:27:26.404Z,87.46
2018-03-08T09:28:26.398Z,87.27
2018-03-08T09:29:26.392Z,87.65
2018-03-08T09:30:26.389Z,86.22
2018-03-08T09:31:26.383Z,85.80
2018-03-08T09:32:26.374Z,85.37
2018-03-08T09:33:26.367Z,85.37
2018-03-08T09:34:26.362Z,85.37
2018-03-08T09:35:26.357Z,85.37
2018-03-08T09:36:26.353Z,86.04
2018-03-08T09:37:26.348Z,85.66
2018-03-08T09:38:26.344Z,85.75
2018-03-08T09:39:26.339Z,85.51
2018-03-08T09:40:26.336Z,84.69
2018-03-08T09:41:26.331Z,83.31
2018-03-08T09:42:26.327Z,83.12
2018-03-08T09:43:26.324Z,82.20
2018-03-08T09:44:26.320Z,81.01
2018-03-08T09:45:26.316Z,79.16
2018-03-08T09:46:26.312Z,76.52
2018-03-08T09:47:26.309Z,73.73
2018-03-08T09:48:26.304Z,73.50
2018-03-08T09:49:26.300Z,74.23
2018-03-08T09:50:26.299Z,76.01
2018-03-08T09:51:26.298Z,76.82
2018-03-08T09:52:26.296Z,77.87
2018-03-08T09:53:26.295Z,78.31
2018-03-08T09:54:26.297Z,79.07
2018-03-08T09:55:26.294Z,79.60
2018-03-08T09:56:26.293Z,80.46
2018-03-08T09:57:26.292Z,81.51
2018-03-08T09:58:26.292Z,82.08
2018-03-08T09:59:26.289Z,82.65
2018-03-08T10:00:26.288Z,82.75
2018-03-08T10:01:26.285Z,83.09
2018-03-08T10:02:26.285Z,83.09
2018-03-08T10:03:26.286Z,83.89
2018-03-08T10:04:26.277Z,83.51
2018-03-08T10:05:26.275Z,83.80
2018-03-08T10:06:26.272Z,83.98
2018-03-08T10:07:26.269Z,83.80
2018-03-08T10:08:26.267Z,83.70
2018-03-08T10:09:26.269Z,83.94
2018-03-08T10:10:26.258Z,83.85
2018-03-08T10:11:26.255Z,84.94
2018-03-08T10:12:26.256Z,84.75
2018-03-08T10:13:26.253Z,85.41
2018-03-08T10:14:26.249Z,84.80
2018-03-08T10:15:26.246Z,85.28
2018-03-08T10:16:26.242Z,85.22
2018-03-08T10:17:26.239Z,84.84
2018-03-08T10:18:26.235Z,85.32
2018-03-08T10:19:26.230Z,85.32
2018-03-08T10:20:26.224Z,85.28
2018-03-08T10:21:44.375Z,85.47
2018-03-08T10:22:26.215Z,85.75
2018-03-08T10:23:26.211Z,86.08
2018-03-08T10:24:26.210Z,85.89
2018-03-08T10:25:26.204Z,85.75
2018-03-08T10:26:26.201Z,85.66
2018-03-08T10:27:26.196Z,85.85
2018-03-08T10:28:26.187Z,85.75
2018-03-08T10:29:26.184Z,86.32
2018-03-08T10:30:26.180Z,86.32
2018-03-08T10:31:26.176Z,86.36
2018-03-08T10:32:26.170Z,86.32
2018-03-08T10:33:26.164Z,86.13
2018-03-08T10:34:26.160Z,86.04
2018-03-08T10:35:26.154Z,86.13
2018-03-08T10:36:26.156Z,86.13
2018-03-08T10:37:26.147Z,86.42
2018-03-08T10:38:26.145Z,86.27
2018-03-08T10:43:26.147Z,84.79
2018-03-08T10:44:26.108Z,84.27
2018-03-08T10:45:26.106Z,83.93
2018-03-08T10:46:26.100Z,83.89
2018-03-08T10:47:26.091Z,83.80
2018-03-08T10:48:26.087Z,83.61
2018-03-08T10:49:26.085Z,84.46
2018-03-08T10:50:26.082Z,84.41
2018-03-08T10:51:26.072Z,84.31
2018-03-08T10:52:26.070Z,83.12
2018-03-08T10:53:26.065Z,82.83
2018-03-08T10:54:26.062Z,82.26
2018-03-08T10:55:26.056Z,81.68
2018-03-08T10:56:26.052Z,82.26
2018-03-08T10:57:26.047Z,81.78
2018-03-08T10:58:26.044Z,81.65
2018-03-08T10:59:26.047Z,81.74
2018-03-08T11:00:26.032Z,82.60
2018-03-08T11:01:26.028Z,82.79
2018-03-08T11:02:26.024Z,82.31
2018-03-08T11:03:26.022Z,82.60
2018-03-08T11:04:26.609Z,82.79
2018-03-08T11:05:26.012Z,83.36
2018-03-08T11:06:26.020Z,82.35
2018-03-08T11:07:26.004Z,82.26
2018-03-08T11:08:26.005Z,82.21
2018-03-08T11:09:25.999Z,81.84
2018-03-08T11:10:25.999Z,82.41
2018-03-08T11:11:25.994Z,82.79
2018-03-08T11:12:25.989Z,82.98
2018-03-08T11:13:25.983Z,82.79
2018-03-08T11:14:25.978Z,82.65
2018-03-08T11:15:25.975Z,83.61
2018-03-08T11:16:25.968Z,83.03
2018-03-08T11:17:25.964Z,83.07
2018-03-08T11:18:25.960Z,82.98
2018-03-08T11:19:25.955Z,83.36
2018-03-08T11:20:25.950Z,83.26
2018-03-08T11:21:25.946Z,83.65
2018-03-08T11:22:25.941Z,83.26
2018-03-08T11:23:25.941Z,83.17
2018-03-08T11:24:25.936Z,83.65
2018-03-08T11:25:25.931Z,83.07
2018-03-08T11:26:25.925Z,82.89
2018-03-08T11:27:25.941Z,82.89
2018-03-08T11:28:25.918Z,82.69
2018-03-08T11:29:25.911Z,82.89
2018-03-08T11:30:25.910Z,82.98
2018-03-08T11:31:25.903Z,82.79
2018-03-08T11:32:25.895Z,82.89
2018-03-08T11:33:25.889Z,82.98
2018-03-08T11:34:25.884Z,82.89
2018-03-08T11:35:25.880Z,83.45
2018-03-08T11:36:25.875Z,82.98
2018-03-08T11:37:25.870Z,82.75
2018-03-08T11:38:25.864Z,82.69
2018-03-08T11:39:25.864Z,82.89
2018-03-08T11:40:25.858Z,83.07
2018-03-08T11:41:25.850Z,82.98
2018-03-08T11:42:25.846Z,83.26
2018-03-08T11:43:25.858Z,83.17
2018-03-08T11:44:25.835Z,83.17
2018-03-08T11:45:25.829Z,82.98
2018-03-08T11:47:25.825Z,83.26
2018-03-08T11:48:25.811Z,83.17
2018-03-08T11:49:25.807Z,82.50
2018-03-08T11:50:25.799Z,83.17
2018-03-08T11:51:25.794Z,83.07
2018-03-08T11:52:25.789Z,82.69
2018-03-08T11:53:25.783Z,83.17
2018-03-08T11:54:25.778Z,83.17
2018-03-08T11:55:25.772Z,82.60
2018-03-08T11:56:25.770Z,82.35
2018-03-08T11:57:25.764Z,82.07
2018-03-08T11:58:25.759Z,81.68
2018-03-08T11:59:25.753Z,82.07
2018-03-08T12:00:25.747Z,81.97
2018-03-08T12:01:25.744Z,81.59
2018-03-08T12:02:25.736Z,81.30
2018-03-08T12:03:25.731Z,81.59
2018-03-08T12:04:25.724Z,81.30
2018-03-08T12:05:25.717Z,81.49
2018-03-08T12:06:25.715Z,82.07
2018-03-08T12:07:25.711Z,82.26
2018-03-08T12:08:25.703Z,82.41
2018-03-08T12:09:25.697Z,82.60
2018-03-08T12:10:25.692Z,83.36
2018-03-08T12:11:25.687Z,83.84
2018-03-08T12:12:25.685Z,85.27
2018-03-08T12:13:25.678Z,85.74
2018-03-08T12:14:25.673Z,87.89
2018-03-08T12:15:25.670Z,88.51
2018-03-08T12:16:25.661Z,89.51
2018-03-08T12:17:25.663Z,90.17
2018-03-08T12:18:25.654Z,91.31
2018-03-08T12:19:25.645Z,91.60
2018-03-08T12:20:25.637Z,92.36
2018-03-08T12:21:25.630Z,92.74
2018-03-08T12:22:25.623Z,93.51
2018-03-08T12:23:25.618Z,95.12
2018-03-08T12:24:25.613Z,96.08
2018-03-08T12:25:25.606Z,96.55
2018-03-08T12:26:25.599Z,96.46
2018-03-08T12:27:25.593Z,96.46
2018-03-08T12:28:25.592Z,96.22
2018-03-08T12:29:25.594Z,95.84
2018-03-08T12:30:25.576Z,95.75
2018-03-08T12:31:25.570Z,97.27
2018-03-08T12:32:25.561Z,98.03
2018-03-08T12:33:25.558Z,98.22
2018-03-08T12:34:25.547Z,97.27
2018-03-08T12:35:25.539Z,98.22
2018-03-08T12:36:25.538Z,97.93
2018-03-08T12:37:25.529Z,98.03
2018-03-08T12:38:25.522Z,98.50
2018-03-08T12:39:25.517Z,98.69
2018-03-08T12:40:25.511Z,98.41
2018-03-08T12:41:25.503Z,98.60
2018-03-08T12:42:25.496Z,99.46
2018-03-08T12:43:25.489Z,99.99
2018-03-08T12:44:25.479Z,99.99
2018-03-08T12:45:25.471Z,99.99
2018-03-08T12:46:25.492Z,99.99
2018-03-08T12:47:25.458Z,99.99
2018-03-08T12:48:25.451Z,99.99
2018-03-08T12:49:25.443Z,99.99
2018-03-08T12:50:25.437Z,99.99
2018-03-08T12:51:25.430Z,99.99
2018-03-08T12:52:25.431Z,99.99
2018-03-08T12:53:25.418Z,99.99
2018-03-08T12:54:25.415Z,99.99
2018-03-08T12:55:25.404Z,99.99
2018-03-08T12:56:25.399Z,99.99
2018-03-08T12:57:25.389Z,99.99